createdAt,value
2022-09-15T00:04:19.950Z,100313.38
2022-09-15T00:09:22.114Z,100313.91
2022-09-15T00:14:22.586Z,100310.69
2022-09-15T00:19:23.187Z,100300.31
2022-09-15T00:24:24.046Z,100299.63
2022-09-15T00:29:24.595Z,100294.09
2022-09-15T00:34:23.775Z,100298.78
2022-09-15T00:39:22.815Z,100310.53
2022-09-15T00:44:52.991Z,100310.53
2022-09-15T00:49:58.958Z,100307.00
2022-09-15T00:55:03.888Z,100295.28
2022-09-15T01:00:10.264Z,100299.78
2022-09-15T01:05:12.409Z,100295.63
2022-09-15T01:10:17.620Z,100282.66
2022-09-15T01:15:18.770Z,100281.66
2022-09-15T01:21:11.125Z,100283.69
2022-09-15T01:27:41.120Z,100277.47
2022-09-15T01:33:37.238Z,100282.84
2022-09-15T01:39:37.155Z,100275.47
2022-09-15T01:44:46.160Z,100287.69
2022-09-15T01:49:54.538Z,100295.72
2022-09-15T01:54:59.999Z,100290.34
2022-09-15T01:59:58.989Z,100285.34
2022-09-15T02:05:08.918Z,100296.06
2022-09-15T02:10:15.460Z,100291.88
2022-09-15T02:15:18.881Z,100287.00
2022-09-15T02:20:33.304Z,100283.81
2022-09-15T02:25:36.319Z,100296.53
2022-09-15T02:30:42.533Z,100287.50
2022-09-15T02:35:43.755Z,100277.13
2022-09-15T02:40:54.405Z,100284.50
2022-09-15T02:45:55.308Z,100275.09
2022-09-15T02:50:55.734Z,100269.06
2022-09-15T02:55:54.730Z,100266.38
2022-09-15T03:01:07.573Z,100262.69
2022-09-15T03:06:23.490Z,100262.16
2022-09-15T03:11:25.127Z,100269.00
2022-09-15T03:16:25.274Z,100275.91
2022-09-15T03:21:25.698Z,100284.78
2022-09-15T03:26:24.923Z,100286.78
2022-09-15T03:31:24.191Z,100270.19
2022-09-15T03:36:23.374Z,100281.28
2022-09-15T03:41:23.822Z,100287.97
2022-09-15T03:46:23.131Z,100286.16
2022-09-15T03:51:22.429Z,100283.13
2022-09-15T03:56:29.251Z,100291.66
2022-09-15T04:01:31.813Z,100287.31
2022-09-15T04:06:31.557Z,100289.16
2022-09-15T04:11:41.209Z,100282.97
2022-09-15T04:16:40.216Z,100288.84
2022-09-15T04:21:41.993Z,100289.31
2022-09-15T04:26:49.925Z,100279.09
2022-09-15T04:31:48.848Z,100288.94
2022-09-15T04:36:54.409Z,100286.63
2022-09-15T04:41:55.026Z,100294.69
2022-09-15T04:46:54.558Z,100286.34
2022-09-15T04:51:53.976Z,100299.25
2022-09-15T04:56:54.287Z,100305.63
2022-09-15T05:01:55.545Z,100304.50
2022-09-15T05:06:54.602Z,100310.03
2022-09-15T05:11:54.860Z,100292.09
2022-09-15T05:16:54.019Z,100282.88
2022-09-15T05:21:52.995Z,100275.97
2022-09-15T05:26:51.910Z,100291.25
2022-09-15T05:31:52.502Z,100294.91
2022-09-15T05:36:51.790Z,100303.28
2022-09-15T05:41:50.758Z,100305.44
2022-09-15T05:46:52.560Z,100297.50
2022-09-15T05:51:51.994Z,100304.34
2022-09-15T05:56:50.942Z,100310.88
2022-09-15T06:01:51.723Z,100303.44
2022-09-15T06:06:51.236Z,100313.34
2022-09-15T06:11:50.088Z,100294.84
2022-09-15T06:16:49.276Z,100291.34
2022-09-15T06:21:49.644Z,100297.88
2022-09-15T06:26:51.472Z,100281.56
2022-09-15T06:31:50.618Z,100279.38
2022-09-15T06:36:59.903Z,100276.03
2022-09-15T06:42:02.773Z,100272.91
2022-09-15T06:47:02.980Z,100264.94
2022-09-15T06:52:04.908Z,100272.84
2022-09-15T06:57:04.000Z,100276.78
2022-09-15T07:02:05.055Z,100270.44
2022-09-15T07:07:05.869Z,100259.25
2022-09-15T07:12:05.014Z,100256.75
2022-09-15T07:17:04.129Z,100247.31
2022-09-15T07:22:07.023Z,100240.50
2022-09-15T07:27:06.547Z,100259.50
2022-09-15T07:32:06.160Z,100253.22
2022-09-15T07:37:06.861Z,100251.72
2022-09-15T07:42:05.974Z,100253.38
2022-09-15T07:47:04.799Z,100262.97
2022-09-15T07:52:03.748Z,100255.81
2022-09-15T07:57:06.541Z,100263.72
2022-09-15T08:02:05.618Z,100267.34
2022-09-15T08:07:04.971Z,100273.09
2022-09-15T08:12:06.074Z,100274.75
2022-09-15T08:17:10.733Z,100278.31
2022-09-15T08:22:10.395Z,100270.88
2022-09-15T08:27:10.895Z,100285.06
2022-09-15T08:32:09.672Z,100275.56
2022-09-15T08:37:08.476Z,100265.13
2022-09-15T08:42:07.916Z,100271.53
2022-09-15T08:47:13.554Z,100266.25
2022-09-15T08:52:17.776Z,100248.94
2022-09-15T08:57:23.029Z,100259.91
2022-09-15T09:02:51.310Z,100237.03
2022-09-15T09:08:12.682Z,100227.16
2022-09-15T09:13:24.315Z,100222.22
2022-09-15T09:18:47.039Z,100209.13
2022-09-15T09:23:53.186Z,100197.56
2022-09-15T09:28:59.186Z,100197.31
2022-09-15T09:34:06.643Z,100199.47
2022-09-15T09:39:05.713Z,100190.94
2022-09-15T09:44:08.202Z,100193.81
2022-09-15T09:49:17.830Z,100184.78
2022-09-15T09:54:20.760Z,100182.91
2022-09-15T09:59:40.669Z,100196.41
2022-09-15T10:04:41.118Z,100207.94
2022-09-15T10:09:40.607Z,100188.63
2022-09-15T10:14:42.432Z,100185.97
2022-09-15T10:19:49.676Z,100180.00
2022-09-15T10:24:56.402Z,100172.31
2022-09-15T10:29:56.102Z,100165.00
2022-09-15T10:35:11.649Z,100150.56
2022-09-15T10:40:24.374Z,100145.34
2022-09-15T10:45:31.588Z,100144.28
2022-09-15T10:50:35.394Z,100146.53
2022-09-15T10:55:53.041Z,100162.34
2022-09-15T11:01:01.577Z,100136.88
2022-09-15T11:06:13.427Z,100139.94
2022-09-15T11:11:19.779Z,100146.31
2022-09-15T11:16:31.617Z,100141.03
2022-09-15T11:21:37.943Z,100128.69
2022-09-15T11:26:43.881Z,100120.91
2022-09-15T11:31:49.284Z,100115.78
2022-09-15T11:36:55.002Z,100120.25
2022-09-15T11:41:57.655Z,100113.91
2022-09-15T11:47:19.920Z,100124.34
2022-09-15T11:52:46.022Z,100119.59
2022-09-15T11:57:51.557Z,100119.00
2022-09-15T12:02:56.752Z,100134.56
2022-09-15T12:08:04.038Z,100124.56
2022-09-15T12:13:03.554Z,100123.47
2022-09-15T12:18:27.418Z,100105.94
2022-09-15T12:23:34.848Z,100104.56
2022-09-15T12:28:44.067Z,100109.78
2022-09-15T12:33:46.313Z,100095.78
2022-09-15T12:38:50.671Z,100082.03
2022-09-15T12:43:54.541Z,100092.41
2022-09-15T12:48:59.340Z,100108.91
2022-09-15T12:54:02.916Z,100100.38
2022-09-15T12:59:06.958Z,100085.94
2022-09-15T13:04:27.311Z,100081.72
2022-09-15T13:09:29.742Z,100082.03
2022-09-15T13:14:35.552Z,100074.25
2022-09-15T13:19:42.329Z,100084.75
2022-09-15T13:24:49.922Z,100065.88
2022-09-15T13:29:51.883Z,100066.03
2022-09-15T13:35:15.083Z,100061.13
2022-09-15T13:40:40.176Z,100075.63
2022-09-15T13:45:52.796Z,100073.69
2022-09-15T13:50:59.842Z,100072.69
2022-09-15T13:56:09.164Z,100057.56
2022-09-15T14:01:08.735Z,100049.06
2022-09-15T14:06:13.980Z,100062.16
2022-09-15T14:11:17.862Z,100072.09
2022-09-15T14:16:25.734Z,100073.75
2022-09-15T14:21:28.821Z,100076.28
2022-09-15T14:26:30.754Z,100066.03
2022-09-15T14:31:32.478Z,100073.41
2022-09-15T14:36:33.271Z,100069.66
2022-09-15T14:41:35.077Z,100052.81
2022-09-15T14:46:38.623Z,100047.25
2022-09-15T14:51:40.421Z,100044.94
2022-09-15T14:56:44.290Z,100046.88
2022-09-15T15:01:47.653Z,100043.03
2022-09-15T15:06:54.207Z,100042.53
2022-09-15T15:12:00.245Z,100043.31
2022-09-15T15:17:06.122Z,100043.63
2022-09-15T15:22:15.676Z,100031.66
2022-09-15T15:27:41.708Z,100030.84
2022-09-15T15:32:45.023Z,100033.09
2022-09-15T15:37:44.190Z,100038.34
2022-09-15T15:42:59.347Z,100035.59
2022-09-15T15:47:59.811Z,100046.25
2022-09-15T15:52:58.705Z,100040.38
2022-09-15T15:57:59.630Z,100029.13
2022-09-15T16:03:02.360Z,100037.00
2022-09-15T16:08:09.730Z,100028.00
2022-09-15T16:13:14.410Z,100037.59
2022-09-15T16:18:14.005Z,100037.06
2022-09-15T16:23:16.735Z,100022.59
2022-09-15T16:28:30.736Z,100026.97
2022-09-15T16:33:38.223Z,100023.59
2022-09-15T16:39:49.639Z,100030.56
2022-09-15T16:52:14.140Z,100036.75
2022-09-15T16:58:33.119Z,100036.94
2022-09-15T17:03:04.051Z,100037.31
2022-09-15T17:08:35.856Z,100031.38
2022-09-15T17:48:27.623Z,100055.53
2022-09-15T17:53:33.243Z,100052.41
2022-09-15T17:58:35.400Z,100045.06
2022-09-15T18:03:43.234Z,100044.22
2022-09-15T18:09:18.295Z,100058.81
2022-09-15T18:14:17.993Z,100057.56
2022-09-15T18:19:41.089Z,100063.50
2022-09-15T18:24:40.155Z,100055.06
2022-09-15T18:29:39.019Z,100054.72
2022-09-15T18:34:39.251Z,100061.28
2022-09-15T18:39:38.669Z,100072.53
2022-09-15T18:44:37.577Z,100073.06
2022-09-15T18:49:38.590Z,100068.59
2022-09-15T18:54:39.086Z,100063.50
2022-09-15T18:59:39.012Z,100071.50
2022-09-15T19:04:40.622Z,100067.44
2022-09-15T19:09:41.235Z,100065.78
2022-09-15T19:14:44.534Z,100049.38
2022-09-15T19:19:46.532Z,100050.88
2022-09-15T19:24:46.787Z,100039.22
2022-09-15T19:29:46.406Z,100014.63
2022-09-15T19:34:46.118Z,100017.13
2022-09-15T19:39:46.782Z,100022.94
2022-09-15T19:44:46.143Z,100007.09
2022-09-15T19:49:45.456Z,99999.63
2022-09-15T19:54:44.621Z,100007.78
2022-09-15T19:59:45.315Z,99993.88
2022-09-15T20:04:44.675Z,99989.00
2022-09-15T20:09:48.464Z,99991.91
2022-09-15T20:14:49.053Z,99977.19
2022-09-15T20:19:47.993Z,99980.16
2022-09-15T20:24:47.027Z,99980.16
2022-09-15T20:29:46.077Z,99982.22
2022-09-15T20:34:46.833Z,99987.66
2022-09-15T20:39:52.787Z,99986.34
2022-09-15T20:44:51.788Z,99987.53
2022-09-15T20:49:52.087Z,99981.34
2022-09-15T20:54:50.869Z,99979.84
2022-09-15T20:59:50.068Z,99976.16
2022-09-15T21:04:48.943Z,99996.13
2022-09-15T21:09:49.488Z,99988.19
2022-09-15T21:14:48.744Z,99989.72
2022-09-15T21:19:48.036Z,99985.97
2022-09-15T21:24:48.567Z,99980.34
2022-09-15T21:29:48.400Z,99975.19
2022-09-15T21:34:47.366Z,99984.13
2022-09-15T21:39:46.227Z,99987.91
2022-09-15T21:44:46.545Z,99971.69
2022-09-15T21:49:45.407Z,99981.28
2022-09-15T21:54:44.824Z,99977.91
2022-09-15T21:59:44.054Z,99978.09
2022-09-15T22:04:44.487Z,99977.50
2022-09-15T22:09:43.558Z,99971.88
2022-09-15T22:14:44.670Z,99965.03
2022-09-15T22:19:45.579Z,99965.84
2022-09-15T22:24:45.244Z,99978.75
2022-09-15T22:29:44.822Z,99979.59
2022-09-15T22:34:45.793Z,99972.31
2022-09-15T22:39:58.573Z,99985.00
2022-09-15T22:44:58.388Z,99984.56
2022-09-15T22:49:58.889Z,99987.47
2022-09-15T22:54:57.874Z,99991.63
2022-09-15T22:59:57.019Z,99987.25
2022-09-15T23:04:55.895Z,99986.66
2022-09-15T23:09:56.343Z,99975.44
2022-09-15T23:14:55.323Z,99965.47
2022-09-15T23:19:55.790Z,99963.78
2022-09-15T23:24:56.235Z,99953.81
2022-09-15T23:29:55.173Z,99942.56
2022-09-15T23:34:54.044Z,99943.63
2022-09-15T23:39:52.890Z,99940.53
2022-09-15T23:44:53.162Z,99938.63
2022-09-15T23:49:52.193Z,99930.94
2022-09-15T23:54:51.102Z,99927.19
2022-09-15T23:59:50.027Z,99922.59
